sensor_id;sensor_type;location;lat;lon;timestamp;temperature;humidity
15103;DHT22;7652;53.584;9.998;2023-02-22T00:00:51;9.60;99.90
15103;DHT22;7652;53.584;9.998;2023-02-22T00:03:54;9.50;99.90
15103;DHT22;7652;53.584;9.998;2023-02-22T00:06:57;9.50;99.90
15103;DHT22;7652;53.584;9.998;2023-02-22T00:10:03;9.60;99.90
15103;DHT22;7652;53.584;9.998;2023-02-22T00:13:12;9.50;99.90
15103;DHT22;7652;53.584;9.998;2023-02-22T00:16:17;9.50;99.90
15103;DHT22;7652;53.584;9.998;2023-02-22T00:19:20;9.60;99.90
15103;DHT22;7652;53.584;9.998;2023-02-22T00:22:23;9.60;99.90
15103;DHT22;7652;53.584;9.998;2023-02-22T00:25:27;9.60;99.90
15103;DHT22;7652;53.584;9.998;2023-02-22T00:28:31;9.60;99.90
15103;DHT22;7652;53.584;9.998;2023-02-22T00:31:36;9.60;99.90
15103;DHT22;7652;53.584;9.998;2023-02-22T00:34:40;9.60;99.90
15103;DHT22;7652;53.584;9.998;2023-02-22T00:37:46;9.70;99.90
15103;DHT22;7652;53.584;9.998;2023-02-22T00:40:51;9.70;99.90
15103;DHT22;7652;53.584;9.998;2023-02-22T00:43:53;9.60;99.90
15103;DHT22;7652;53.584;9.998;2023-02-22T00:46:57;9.40;99.90
15103;DHT22;7652;53.584;9.998;2023-02-22T00:50:00;9.50;99.90
15103;DHT22;7652;53.584;9.998;2023-02-22T00:53:03;9.50;99.90
15103;DHT22;7652;53.584;9.998;2023-02-22T00:56:09;9.50;99.90
15103;DHT22;7652;53.584;9.998;2023-02-22T00:59:12;9.50;99.90
15103;DHT22;7652;53.584;9.998;2023-02-22T01:02:15;9.50;99.90
15103;DHT22;7652;53.584;9.998;2023-02-22T01:05:21;9.50;99.90
15103;DHT22;7652;53.584;9.998;2023-02-22T01:08:25;9.40;99.90
15103;DHT22;7652;53.584;9.998;2023-02-22T01:11:31;9.40;99.90
15103;DHT22;7652;53.584;9.998;2023-02-22T01:14:34;9.50;99.90
15103;DHT22;7652;53.584;9.998;2023-02-22T01:17:38;9.40;99.90
15103;DHT22;7652;53.584;9.998;2023-02-22T01:20:42;9.40;99.90
15103;DHT22;7652;53.584;9.998;2023-02-22T01:23:48;9.40;99.90
15103;DHT22;7652;53.584;9.998;2023-02-22T01:26:53;9.40;99.90
15103;DHT22;7652;53.584;9.998;2023-02-22T01:29:56;9.40;99.90
15103;DHT22;7652;53.584;9.998;2023-02-22T01:33:00;9.40;99.90
15103;DHT22;7652;53.584;9.998;2023-02-22T01:36:04;9.40;99.90
15103;DHT22;7652;53.584;9.998;2023-02-22T01:39:12;9.20;99.90
15103;DHT22;7652;53.584;9.998;2023-02-22T01:42:16;9.20;99.90
15103;DHT22;7652;53.584;9.998;2023-02-22T01:45:43;9.30;99.90
15103;DHT22;7652;53.584;9.998;2023-02-22T01:48:50;9.30;99.90
15103;DHT22;7652;53.584;9.998;2023-02-22T01:51:56;9.30;99.90
15103;DHT22;7652;53.584;9.998;2023-02-22T01:54:59;9.20;99.90
15103;DHT22;7652;53.584;9.998;2023-02-22T01:58:04;9.30;99.90
15103;DHT22;7652;53.584;9.998;2023-02-22T02:01:08;9.30;99.90
15103;DHT22;7652;53.584;9.998;2023-02-22T02:04:16;9.30;99.90
15103;DHT22;7652;53.584;9.998;2023-02-22T02:07:22;9.30;99.90
15103;DHT22;7652;53.584;9.998;2023-02-22T02:10:25;9.30;99.90
15103;DHT22;7652;53.584;9.998;2023-02-22T02:13:29;9.30;99.90
15103;DHT22;7652;53.584;9.998;2023-02-22T02:16:37;9.30;99.90
15103;DHT22;7652;53.584;9.998;2023-02-22T02:19:45;9.30;99.90
15103;DHT22;7652;53.584;9.998;2023-02-22T02:22:55;9.20;99.90
15103;DHT22;7652;53.584;9.998;2023-02-22T02:26:32;9.20;99.90
15103;DHT22;7652;53.584;9.998;2023-02-22T02:30:11;9.20;99.90
15103;DHT22;7652;53.584;9.998;2023-02-22T02:33:28;9.10;99.90
15103;DHT22;7652;53.584;9.998;2023-02-22T02:36:42;9.20;99.90
15103;DHT22;7652;53.584;9.998;2023-02-22T02:39:52;9.10;99.90
15103;DHT22;7652;53.584;9.998;2023-02-22T02:43:03;9.20;99.90
15103;DHT22;7652;53.584;9.998;2023-02-22T02:46:09;9.30;99.90
15103;DHT22;7652;53.584;9.998;2023-02-22T02:49:19;9.20;99.90
15103;DHT22;7652;53.584;9.998;2023-02-22T02:52:25;9.10;99.90
15103;DHT22;7652;53.584;9.998;2023-02-22T02:55:29;9.10;99.90
15103;DHT22;7652;53.584;9.998;2023-02-22T02:58:41;9.00;99.90
15103;DHT22;7652;53.584;9.998;2023-02-22T03:01:52;8.90;99.90
15103;DHT22;7652;53.584;9.998;2023-02-22T03:05:10;8.90;99.90
15103;DHT22;7652;53.584;9.998;2023-02-22T03:08:19;8.90;99.90
15103;DHT22;7652;53.584;9.998;2023-02-22T03:11:29;9.00;99.90
15103;DHT22;7652;53.584;9.998;2023-02-22T03:14:39;9.10;99.90
15103;DHT22;7652;53.584;9.998;2023-02-22T03:17:48;9.00;99.90
15103;DHT22;7652;53.584;9.998;2023-02-22T03:20:58;9.10;99.90
15103;DHT22;7652;53.584;9.998;2023-02-22T03:24:07;9.00;99.90
15103;DHT22;7652;53.584;9.998;2023-02-22T03:27:15;9.00;99.90
15103;DHT22;7652;53.584;9.998;2023-02-22T03:30:26;9.00;99.90
15103;DHT22;7652;53.584;9.998;2023-02-22T03:33:38;9.00;99.90
15103;DHT22;7652;53.584;9.998;2023-02-22T03:36:46;9.10;99.90
15103;DHT22;7652;53.584;9.998;2023-02-22T03:39:52;9.10;99.90
15103;DHT22;7652;53.584;9.998;2023-02-22T03:43:04;9.10;99.90
15103;DHT22;7652;53.584;9.998;2023-02-22T03:46:09;9.10;99.90
15103;DHT22;7652;53.584;9.998;2023-02-22T03:49:16;9.00;99.90
15103;DHT22;7652;53.584;9.998;2023-02-22T03:52:23;9.00;99.90
15103;DHT22;7652;53.584;9.998;2023-02-22T03:55:26;9.10;99.90
15103;DHT22;7652;53.584;9.998;2023-02-22T03:58:33;9.00;99.90
15103;DHT22;7652;53.584;9.998;2023-02-22T04:01:37;9.00;99.90
15103;DHT22;7652;53.584;9.998;2023-02-22T04:04:40;9.00;99.90
15103;DHT22;7652;53.584;9.998;2023-02-22T04:07:44;9.00;99.90
15103;DHT22;7652;53.584;9.998;2023-02-22T04:10:47;9.00;99.90
15103;DHT22;7652;53.584;9.998;2023-02-22T04:13:50;9.10;99.90
15103;DHT22;7652;53.584;9.998;2023-02-22T04:16:55;9.10;99.90
15103;DHT22;7652;53.584;9.998;2023-02-22T04:19:58;9.10;99.90
15103;DHT22;7652;53.584;9.998;2023-02-22T04:23:03;9.20;99.90
15103;DHT22;7652;53.584;9.998;2023-02-22T04:26:06;9.20;99.90
15103;DHT22;7652;53.584;9.998;2023-02-22T04:29:09;9.20;99.90
15103;DHT22;7652;53.584;9.998;2023-02-22T04:32:12;9.20;99.90
15103;DHT22;7652;53.584;9.998;2023-02-22T04:35:15;9.10;99.90
15103;DHT22;7652;53.584;9.998;2023-02-22T04:38:20;9.10;99.90
15103;DHT22;7652;53.584;9.998;2023-02-22T04:41:23;9.10;99.90
15103;DHT22;7652;53.584;9.998;2023-02-22T04:44:26;9.10;99.90
15103;DHT22;7652;53.584;9.998;2023-02-22T04:47:30;9.00;99.90
15103;DHT22;7652;53.584;9.998;2023-02-22T04:50:33;9.00;99.90
15103;DHT22;7652;53.584;9.998;2023-02-22T04:53:38;9.10;99.90
15103;DHT22;7652;53.584;9.998;2023-02-22T04:56:42;9.10;99.90
15103;DHT22;7652;53.584;9.998;2023-02-22T04:59:45;9.10;99.90
15103;DHT22;7652;53.584;9.998;2023-02-22T05:02:48;9.10;99.90
15103;DHT22;7652;53.584;9.998;2023-02-22T05:05:51;9.00;99.90
15103;DHT22;7652;53.584;9.998;2023-02-22T05:08:55;9.10;99.90
15103;DHT22;7652;53.584;9.998;2023-02-22T05:11:58;9.00;99.90
15103;DHT22;7652;53.584;9.998;2023-02-22T05:15:01;9.10;99.90
15103;DHT22;7652;53.584;9.998;2023-02-22T05:18:05;9.10;99.90
15103;DHT22;7652;53.584;9.998;2023-02-22T05:21:08;9.10;99.90
15103;DHT22;7652;53.584;9.998;2023-02-22T05:24:13;9.10;99.90
15103;DHT22;7652;53.584;9.998;2023-02-22T05:27:16;9.10;99.90
15103;DHT22;7652;53.584;9.998;2023-02-22T05:30:22;9.10;99.90
15103;DHT22;7652;53.584;9.998;2023-02-22T05:33:25;9.10;99.90
15103;DHT22;7652;53.584;9.998;2023-02-22T05:36:28;9.10;99.90
15103;DHT22;7652;53.584;9.998;2023-02-22T05:39:32;9.10;99.90
15103;DHT22;7652;53.584;9.998;2023-02-22T05:42:35;9.10;99.90
15103;DHT22;7652;53.584;9.998;2023-02-22T05:45:38;9.10;99.90
15103;DHT22;7652;53.584;9.998;2023-02-22T05:48:41;9.10;99.90
15103;DHT22;7652;53.584;9.998;2023-02-22T05:51:45;9.10;99.90
15103;DHT22;7652;53.584;9.998;2023-02-22T05:54:49;9.10;99.90
15103;DHT22;7652;53.584;9.998;2023-02-22T05:57:52;9.10;99.90
15103;DHT22;7652;53.584;9.998;2023-02-22T06:00:56;9.10;99.90
15103;DHT22;7652;53.584;9.998;2023-02-22T06:03:59;9.20;99.90
15103;DHT22;7652;53.584;9.998;2023-02-22T06:07:02;9.20;99.90
15103;DHT22;7652;53.584;9.998;2023-02-22T06:10:06;9.20;99.90
15103;DHT22;7652;53.584;9.998;2023-02-22T06:13:09;9.10;99.90
15103;DHT22;7652;53.584;9.998;2023-02-22T06:16:12;9.10;99.90
15103;DHT22;7652;53.584;9.998;2023-02-22T06:19:15;9.20;99.90
15103;DHT22;7652;53.584;9.998;2023-02-22T06:22:19;9.20;99.90
15103;DHT22;7652;53.584;9.998;2023-02-22T06:25:24;9.20;99.90
15103;DHT22;7652;53.584;9.998;2023-02-22T06:28:27;9.20;99.90
15103;DHT22;7652;53.584;9.998;2023-02-22T06:31:30;9.30;99.90
15103;DHT22;7652;53.584;9.998;2023-02-22T06:34:33;9.30;99.90
15103;DHT22;7652;53.584;9.998;2023-02-22T06:37:38;9.20;99.90
15103;DHT22;7652;53.584;9.998;2023-02-22T06:40:42;9.20;99.90
15103;DHT22;7652;53.584;9.998;2023-02-22T06:43:46;9.10;99.90
15103;DHT22;7652;53.584;9.998;2023-02-22T06:46:50;9.00;99.90
15103;DHT22;7652;53.584;9.998;2023-02-22T06:49:53;9.00;99.90
15103;DHT22;7652;53.584;9.998;2023-02-22T06:52:57;9.10;99.90
15103;DHT22;7652;53.584;9.998;2023-02-22T06:56:01;9.10;99.90
15103;DHT22;7652;53.584;9.998;2023-02-22T06:59:04;9.20;99.90
15103;DHT22;7652;53.584;9.998;2023-02-22T07:02:08;9.20;99.90
15103;DHT22;7652;53.584;9.998;2023-02-22T07:05:11;9.20;99.90
15103;DHT22;7652;53.584;9.998;2023-02-22T07:08:14;9.20;99.90
15103;DHT22;7652;53.584;9.998;2023-02-22T07:11:19;9.30;99.90
15103;DHT22;7652;53.584;9.998;2023-02-22T07:14:22;9.20;99.90
15103;DHT22;7652;53.584;9.998;2023-02-22T07:17:25;9.20;99.90
15103;DHT22;7652;53.584;9.998;2023-02-22T07:20:29;9.30;99.90
15103;DHT22;7652;53.584;9.998;2023-02-22T07:23:33;9.30;99.90
15103;DHT22;7652;53.584;9.998;2023-02-22T07:26:40;9.30;99.90
15103;DHT22;7652;53.584;9.998;2023-02-22T07:29:43;9.30;99.90
15103;DHT22;7652;53.584;9.998;2023-02-22T07:32:47;9.40;99.90
15103;DHT22;7652;53.584;9.998;2023-02-22T07:35:50;9.40;99.90
15103;DHT22;7652;53.584;9.998;2023-02-22T07:38:53;9.40;99.90
15103;DHT22;7652;53.584;9.998;2023-02-22T07:41:57;9.30;99.90
15103;DHT22;7652;53.584;9.998;2023-02-22T07:45:00;9.30;99.90
15103;DHT22;7652;53.584;9.998;2023-02-22T07:48:04;9.40;99.90
15103;DHT22;7652;53.584;9.998;2023-02-22T07:51:07;9.40;99.90
15103;DHT22;7652;53.584;9.998;2023-02-22T07:54:11;9.50;99.90
15103;DHT22;7652;53.584;9.998;2023-02-22T07:57:15;9.60;99.90
15103;DHT22;7652;53.584;9.998;2023-02-22T08:00:22;9.70;99.90
15103;DHT22;7652;53.584;9.998;2023-02-22T08:03:26;9.60;99.90
15103;DHT22;7652;53.584;9.998;2023-02-22T08:06:29;9.60;99.90
15103;DHT22;7652;53.584;9.998;2023-02-22T08:09:32;9.60;99.90
15103;DHT22;7652;53.584;9.998;2023-02-22T08:12:37;9.60;99.90
15103;DHT22;7652;53.584;9.998;2023-02-22T08:15:41;9.60;99.90
15103;DHT22;7652;53.584;9.998;2023-02-22T08:18:45;9.60;99.90
15103;DHT22;7652;53.584;9.998;2023-02-22T08:21:48;9.70;99.90
15103;DHT22;7652;53.584;9.998;2023-02-22T08:24:51;9.80;99.90
15103;DHT22;7652;53.584;9.998;2023-02-22T08:27:58;9.80;99.90
15103;DHT22;7652;53.584;9.998;2023-02-22T08:31:02;9.80;99.90
15103;DHT22;7652;53.584;9.998;2023-02-22T08:34:08;9.90;99.90
15103;DHT22;7652;53.584;9.998;2023-02-22T08:37:11;9.80;99.90
15103;DHT22;7652;53.584;9.998;2023-02-22T08:40:15;9.90;99.90
15103;DHT22;7652;53.584;9.998;2023-02-22T08:43:21;9.90;99.90
15103;DHT22;7652;53.584;9.998;2023-02-22T08:46:24;9.90;99.90
15103;DHT22;7652;53.584;9.998;2023-02-22T08:49:27;10.00;99.90
15103;DHT22;7652;53.584;9.998;2023-02-22T08:52:30;10.10;99.90
15103;DHT22;7652;53.584;9.998;2023-02-22T08:55:35;10.20;99.90
15103;DHT22;7652;53.584;9.998;2023-02-22T08:58:39;10.20;99.90
15103;DHT22;7652;53.584;9.998;2023-02-22T09:01:42;10.20;99.90
15103;DHT22;7652;53.584;9.998;2023-02-22T09:04:46;10.20;99.90
15103;DHT22;7652;53.584;9.998;2023-02-22T09:07:49;10.20;99.90
15103;DHT22;7652;53.584;9.998;2023-02-22T09:10:52;10.30;99.90
15103;DHT22;7652;53.584;9.998;2023-02-22T09:13:57;10.40;99.90
15103;DHT22;7652;53.584;9.998;2023-02-22T09:17:00;10.30;99.90
15103;DHT22;7652;53.584;9.998;2023-02-22T09:20:07;10.40;99.90
15103;DHT22;7652;53.584;9.998;2023-02-22T09:23:10;10.40;99.90
15103;DHT22;7652;53.584;9.998;2023-02-22T09:26:15;10.30;99.90
15103;DHT22;7652;53.584;9.998;2023-02-22T09:29:20;10.20;99.90
15103;DHT22;7652;53.584;9.998;2023-02-22T09:32:24;10.20;99.90
15103;DHT22;7652;53.584;9.998;2023-02-22T09:35:29;10.20;99.90
15103;DHT22;7652;53.584;9.998;2023-02-22T09:38:32;10.10;99.90
15103;DHT22;7652;53.584;9.998;2023-02-22T09:41:38;10.10;99.90
15103;DHT22;7652;53.584;9.998;2023-02-22T09:44:49;10.00;99.90
15103;DHT22;7652;53.584;9.998;2023-02-22T09:47:56;9.90;99.90
15103;DHT22;7652;53.584;9.998;2023-02-22T09:51:31;9.90;99.90
15103;DHT22;7652;53.584;9.998;2023-02-22T09:54:40;9.90;99.90
15103;DHT22;7652;53.584;9.998;2023-02-22T09:57:46;10.00;99.90
15103;DHT22;7652;53.584;9.998;2023-02-22T10:00:56;10.00;99.90
15103;DHT22;7652;53.584;9.998;2023-02-22T10:04:04;10.00;99.90
15103;DHT22;7652;53.584;9.998;2023-02-22T10:07:16;10.20;99.90
15103;DHT22;7652;53.584;9.998;2023-02-22T10:10:30;10.30;99.90
15103;DHT22;7652;53.584;9.998;2023-02-22T10:13:41;10.20;99.90
15103;DHT22;7652;53.584;9.998;2023-02-22T10:16:52;10.20;99.90
15103;DHT22;7652;53.584;9.998;2023-02-22T10:20:07;10.20;99.90
15103;DHT22;7652;53.584;9.998;2023-02-22T10:23:20;10.20;99.90
15103;DHT22;7652;53.584;9.998;2023-02-22T10:26:28;10.20;99.90
15103;DHT22;7652;53.584;9.998;2023-02-22T10:29:36;10.40;99.90
15103;DHT22;7652;53.584;9.998;2023-02-22T10:32:45;10.40;99.90
15103;DHT22;7652;53.584;9.998;2023-02-22T10:35:50;10.40;99.90
15103;DHT22;7652;53.584;9.998;2023-02-22T10:38:57;10.50;99.90
15103;DHT22;7652;53.584;9.998;2023-02-22T10:42:03;10.70;99.90
15103;DHT22;7652;53.584;9.998;2023-02-22T10:45:20;10.70;99.90
15103;DHT22;7652;53.584;9.998;2023-02-22T10:48:25;10.80;99.90
15103;DHT22;7652;53.584;9.998;2023-02-22T10:51:30;11.00;99.90
15103;DHT22;7652;53.584;9.998;2023-02-22T10:54:37;11.30;99.90
15103;DHT22;7652;53.584;9.998;2023-02-22T10:57:44;11.80;99.90
15103;DHT22;7652;53.584;9.998;2023-02-22T11:00:48;12.20;99.90
15103;DHT22;7652;53.584;9.998;2023-02-22T11:03:58;12.50;99.90
15103;DHT22;7652;53.584;9.998;2023-02-22T11:07:09;13.00;99.90
15103;DHT22;7652;53.584;9.998;2023-02-22T11:10:29;13.10;99.90
15103;DHT22;7652;53.584;9.998;2023-02-22T11:13:36;13.40;99.90
15103;DHT22;7652;53.584;9.998;2023-02-22T11:16:42;13.70;99.90
15103;DHT22;7652;53.584;9.998;2023-02-22T11:19:49;14.00;99.90
15103;DHT22;7652;53.584;9.998;2023-02-22T11:22:54;14.30;99.90
15103;DHT22;7652;53.584;9.998;2023-02-22T11:26:05;15.10;99.90
15103;DHT22;7652;53.584;9.998;2023-02-22T11:29:12;16.10;99.90
15103;DHT22;7652;53.584;9.998;2023-02-22T11:32:19;16.40;99.90
15103;DHT22;7652;53.584;9.998;2023-02-22T11:35:38;16.70;99.90
15103;DHT22;7652;53.584;9.998;2023-02-22T11:38:53;17.10;99.90
15103;DHT22;7652;53.584;9.998;2023-02-22T11:42:16;16.60;99.90
15103;DHT22;7652;53.584;9.998;2023-02-22T11:45:22;16.90;99.90
15103;DHT22;7652;53.584;9.998;2023-02-22T11:48:27;17.20;99.90
15103;DHT22;7652;53.584;9.998;2023-02-22T11:51:43;18.00;99.90
15103;DHT22;7652;53.584;9.998;2023-02-22T11:55:04;17.50;99.90
15103;DHT22;7652;53.584;9.998;2023-02-22T11:58:33;16.80;99.90
15103;DHT22;7652;53.584;9.998;2023-02-22T12:01:42;17.30;99.90
15103;DHT22;7652;53.584;9.998;2023-02-22T12:04:58;16.50;99.90
15103;DHT22;7652;53.584;9.998;2023-02-22T12:08:18;16.50;99.90
15103;DHT22;7652;53.584;9.998;2023-02-22T12:11:25;15.80;99.90
15103;DHT22;7652;53.584;9.998;2023-02-22T12:14:33;15.10;99.90
15103;DHT22;7652;53.584;9.998;2023-02-22T12:17:49;14.90;99.90
15103;DHT22;7652;53.584;9.998;2023-02-22T12:21:05;14.70;99.90
15103;DHT22;7652;53.584;9.998;2023-02-22T12:24:14;14.50;99.90
15103;DHT22;7652;53.584;9.998;2023-02-22T12:27:24;14.40;99.90
15103;DHT22;7652;53.584;9.998;2023-02-22T12:30:31;14.20;99.90
15103;DHT22;7652;53.584;9.998;2023-02-22T12:33:42;14.40;99.90
15103;DHT22;7652;53.584;9.998;2023-02-22T12:36:50;14.80;99.90
15103;DHT22;7652;53.584;9.998;2023-02-22T12:40:02;14.60;99.90
15103;DHT22;7652;53.584;9.998;2023-02-22T12:43:12;14.90;99.90
15103;DHT22;7652;53.584;9.998;2023-02-22T12:46:20;14.80;99.90
15103;DHT22;7652;53.584;9.998;2023-02-22T12:49:29;14.70;99.90
15103;DHT22;7652;53.584;9.998;2023-02-22T12:52:41;14.30;99.90
15103;DHT22;7652;53.584;9.998;2023-02-22T12:55:50;14.00;99.90
15103;DHT22;7652;53.584;9.998;2023-02-22T12:59:00;14.00;99.90
15103;DHT22;7652;53.584;9.998;2023-02-22T13:02:13;14.00;99.90
15103;DHT22;7652;53.584;9.998;2023-02-22T13:05:17;13.90;99.90
15103;DHT22;7652;53.584;9.998;2023-02-22T13:08:26;14.00;99.90
15103;DHT22;7652;53.584;9.998;2023-02-22T13:11:39;14.00;99.90
15103;DHT22;7652;53.584;9.998;2023-02-22T13:14:55;14.00;99.90
15103;DHT22;7652;53.584;9.998;2023-02-22T13:18:05;13.90;99.90
15103;DHT22;7652;53.584;9.998;2023-02-22T13:21:15;13.70;99.90
15103;DHT22;7652;53.584;9.998;2023-02-22T13:24:25;13.70;99.90
15103;DHT22;7652;53.584;9.998;2023-02-22T13:27:36;13.70;99.90
15103;DHT22;7652;53.584;9.998;2023-02-22T13:30:43;13.60;99.90
15103;DHT22;7652;53.584;9.998;2023-02-22T13:34:01;13.80;99.90
15103;DHT22;7652;53.584;9.998;2023-02-22T13:37:18;13.70;99.90
15103;DHT22;7652;53.584;9.998;2023-02-22T13:40:41;13.60;99.90
15103;DHT22;7652;53.584;9.998;2023-02-22T13:48:09;13.60;99.90
15103;DHT22;7652;53.584;9.998;2023-02-22T13:51:31;13.70;99.90
15103;DHT22;7652;53.584;9.998;2023-02-22T13:54:40;13.60;99.90
15103;DHT22;7652;53.584;9.998;2023-02-22T13:57:47;13.70;99.90
15103;DHT22;7652;53.584;9.998;2023-02-22T14:00:55;13.50;99.90
15103;DHT22;7652;53.584;9.998;2023-02-22T14:04:19;13.30;99.90
15103;DHT22;7652;53.584;9.998;2023-02-22T14:07:46;13.20;99.90
15103;DHT22;7652;53.584;9.998;2023-02-22T14:10:50;13.20;99.90
15103;DHT22;7652;53.584;9.998;2023-02-22T14:14:13;13.10;99.90
15103;DHT22;7652;53.584;9.998;2023-02-22T14:17:27;13.00;99.90
15103;DHT22;7652;53.584;9.998;2023-02-22T14:20:32;13.10;99.90
15103;DHT22;7652;53.584;9.998;2023-02-22T14:23:38;13.00;99.90
15103;DHT22;7652;53.584;9.998;2023-02-22T14:26:54;13.00;99.90
15103;DHT22;7652;53.584;9.998;2023-02-22T14:29:58;13.00;99.90
15103;DHT22;7652;53.584;9.998;2023-02-22T14:36:50;12.90;99.90
15103;DHT22;7652;53.584;9.998;2023-02-22T14:39:58;13.00;99.90
15103;DHT22;7652;53.584;9.998;2023-02-22T14:43:15;13.00;99.90
15103;DHT22;7652;53.584;9.998;2023-02-22T14:46:24;13.00;99.90
15103;DHT22;7652;53.584;9.998;2023-02-22T14:49:34;12.90;99.90
15103;DHT22;7652;53.584;9.998;2023-02-22T14:52:39;12.90;99.90
15103;DHT22;7652;53.584;9.998;2023-02-22T14:55:48;12.80;99.90
15103;DHT22;7652;53.584;9.998;2023-02-22T14:58:56;12.70;99.90
15103;DHT22;7652;53.584;9.998;2023-02-22T15:02:04;12.70;99.90
15103;DHT22;7652;53.584;9.998;2023-02-22T15:05:15;12.70;99.90
15103;DHT22;7652;53.584;9.998;2023-02-22T15:08:20;12.60;99.90
15103;DHT22;7652;53.584;9.998;2023-02-22T15:11:30;12.60;99.90
15103;DHT22;7652;53.584;9.998;2023-02-22T15:14:35;12.50;99.90
15103;DHT22;7652;53.584;9.998;2023-02-22T15:17:39;12.60;99.90
15103;DHT22;7652;53.584;9.998;2023-02-22T15:20:44;12.50;99.90
15103;DHT22;7652;53.584;9.998;2023-02-22T15:23:52;12.50;99.90
15103;DHT22;7652;53.584;9.998;2023-02-22T15:27:02;12.50;99.90
15103;DHT22;7652;53.584;9.998;2023-02-22T15:30:14;12.50;99.90
15103;DHT22;7652;53.584;9.998;2023-02-22T15:33:19;12.50;99.90
15103;DHT22;7652;53.584;9.998;2023-02-22T15:36:27;12.60;99.90
15103;DHT22;7652;53.584;9.998;2023-02-22T15:39:33;12.50;99.90
15103;DHT22;7652;53.584;9.998;2023-02-22T15:42:46;12.50;99.90
15103;DHT22;7652;53.584;9.998;2023-02-22T15:45:50;12.40;99.90
15103;DHT22;7652;53.584;9.998;2023-02-22T15:49:16;12.50;99.90
15103;DHT22;7652;53.584;9.998;2023-02-22T15:52:24;12.40;99.90
15103;DHT22;7652;53.584;9.998;2023-02-22T15:55:30;12.40;99.90
15103;DHT22;7652;53.584;9.998;2023-02-22T15:58:35;12.30;99.90
15103;DHT22;7652;53.584;9.998;2023-02-22T16:01:41;12.30;99.90
15103;DHT22;7652;53.584;9.998;2023-02-22T16:04:45;12.20;99.90
15103;DHT22;7652;53.584;9.998;2023-02-22T16:08:01;12.20;99.90
15103;DHT22;7652;53.584;9.998;2023-02-22T16:11:07;12.20;99.90
15103;DHT22;7652;53.584;9.998;2023-02-22T16:14:25;12.20;99.90
15103;DHT22;7652;53.584;9.998;2023-02-22T16:17:34;12.10;99.90
15103;DHT22;7652;53.584;9.998;2023-02-22T16:20:38;12.00;99.90
15103;DHT22;7652;53.584;9.998;2023-02-22T16:23:47;12.10;99.90
15103;DHT22;7652;53.584;9.998;2023-02-22T16:27:02;12.10;99.90
15103;DHT22;7652;53.584;9.998;2023-02-22T16:30:16;12.10;99.90
15103;DHT22;7652;53.584;9.998;2023-02-22T16:33:29;12.00;99.90
15103;DHT22;7652;53.584;9.998;2023-02-22T16:36:40;12.00;99.90
15103;DHT22;7652;53.584;9.998;2023-02-22T16:39:44;11.90;99.90
15103;DHT22;7652;53.584;9.998;2023-02-22T16:42:48;12.00;99.90
15103;DHT22;7652;53.584;9.998;2023-02-22T16:45:52;11.90;99.90
15103;DHT22;7652;53.584;9.998;2023-02-22T16:48:55;11.90;99.90
15103;DHT22;7652;53.584;9.998;2023-02-22T16:52:05;11.80;99.90
15103;DHT22;7652;53.584;9.998;2023-02-22T16:55:12;11.80;99.90
15103;DHT22;7652;53.584;9.998;2023-02-22T16:58:16;11.70;99.90
15103;DHT22;7652;53.584;9.998;2023-02-22T17:01:20;11.60;99.90
15103;DHT22;7652;53.584;9.998;2023-02-22T17:04:25;11.60;99.90
15103;DHT22;7652;53.584;9.998;2023-02-22T17:07:30;11.60;99.90
15103;DHT22;7652;53.584;9.998;2023-02-22T17:10:34;11.50;99.90
15103;DHT22;7652;53.584;9.998;2023-02-22T17:13:38;11.50;99.90
15103;DHT22;7652;53.584;9.998;2023-02-22T17:16:42;11.50;99.90
15103;DHT22;7652;53.584;9.998;2023-02-22T17:19:47;11.40;99.90
15103;DHT22;7652;53.584;9.998;2023-02-22T17:22:50;11.40;99.90
15103;DHT22;7652;53.584;9.998;2023-02-22T17:25:56;11.40;99.90
15103;DHT22;7652;53.584;9.998;2023-02-22T17:29:00;11.40;99.90
15103;DHT22;7652;53.584;9.998;2023-02-22T17:32:03;11.40;99.90
15103;DHT22;7652;53.584;9.998;2023-02-22T17:35:07;11.30;99.90
15103;DHT22;7652;53.584;9.998;2023-02-22T17:38:10;11.30;99.90
15103;DHT22;7652;53.584;9.998;2023-02-22T17:41:14;11.30;99.90
15103;DHT22;7652;53.584;9.998;2023-02-22T17:44:17;11.30;99.90
15103;DHT22;7652;53.584;9.998;2023-02-22T17:47:20;11.30;99.90
15103;DHT22;7652;53.584;9.998;2023-02-22T17:50:24;11.20;99.90
15103;DHT22;7652;53.584;9.998;2023-02-22T17:53:28;11.20;99.90
15103;DHT22;7652;53.584;9.998;2023-02-22T17:56:32;11.20;99.90
15103;DHT22;7652;53.584;9.998;2023-02-22T17:59:35;11.10;99.90
15103;DHT22;7652;53.584;9.998;2023-02-22T18:02:42;11.10;99.90
15103;DHT22;7652;53.584;9.998;2023-02-22T18:05:47;11.10;99.90
15103;DHT22;7652;53.584;9.998;2023-02-22T18:08:51;11.10;99.90
15103;DHT22;7652;53.584;9.998;2023-02-22T18:11:58;11.10;99.90
15103;DHT22;7652;53.584;9.998;2023-02-22T18:15:01;11.00;99.90
15103;DHT22;7652;53.584;9.998;2023-02-22T18:18:04;11.00;99.90
15103;DHT22;7652;53.584;9.998;2023-02-22T18:21:07;11.00;99.90
15103;DHT22;7652;53.584;9.998;2023-02-22T18:24:10;11.00;99.90
15103;DHT22;7652;53.584;9.998;2023-02-22T18:27:15;11.00;99.90
15103;DHT22;7652;53.584;9.998;2023-02-22T18:30:18;11.00;99.90
15103;DHT22;7652;53.584;9.998;2023-02-22T18:33:21;10.90;99.90
15103;DHT22;7652;53.584;9.998;2023-02-22T18:36:24;10.90;99.90
15103;DHT22;7652;53.584;9.998;2023-02-22T18:39:27;10.90;99.90
15103;DHT22;7652;53.584;9.998;2023-02-22T18:42:37;10.90;99.90
15103;DHT22;7652;53.584;9.998;2023-02-22T18:45:40;10.90;99.90
15103;DHT22;7652;53.584;9.998;2023-02-22T18:48:43;10.80;99.90
15103;DHT22;7652;53.584;9.998;2023-02-22T18:51:47;10.80;99.90
15103;DHT22;7652;53.584;9.998;2023-02-22T18:54:50;10.80;99.90
15103;DHT22;7652;53.584;9.998;2023-02-22T18:57:55;10.80;99.90
15103;DHT22;7652;53.584;9.998;2023-02-22T19:00:59;10.80;99.90
15103;DHT22;7652;53.584;9.998;2023-02-22T19:04:02;10.80;99.90
15103;DHT22;7652;53.584;9.998;2023-02-22T19:07:05;10.70;99.90
15103;DHT22;7652;53.584;9.998;2023-02-22T19:10:08;10.70;99.90
15103;DHT22;7652;53.584;9.998;2023-02-22T19:13:13;10.70;99.90
15103;DHT22;7652;53.584;9.998;2023-02-22T19:16:18;10.70;99.90
15103;DHT22;7652;53.584;9.998;2023-02-22T19:19:22;10.70;99.90
15103;DHT22;7652;53.584;9.998;2023-02-22T19:22:27;10.70;99.90
15103;DHT22;7652;53.584;9.998;2023-02-22T19:25:33;10.60;99.90
15103;DHT22;7652;53.584;9.998;2023-02-22T19:28:38;10.60;99.90
15103;DHT22;7652;53.584;9.998;2023-02-22T19:31:41;10.50;99.90
15103;DHT22;7652;53.584;9.998;2023-02-22T19:34:44;10.60;99.90
15103;DHT22;7652;53.584;9.998;2023-02-22T19:37:47;10.60;99.90
15103;DHT22;7652;53.584;9.998;2023-02-22T19:40:54;10.50;99.90
15103;DHT22;7652;53.584;9.998;2023-02-22T19:44:00;10.50;99.90
15103;DHT22;7652;53.584;9.998;2023-02-22T19:47:03;10.50;99.90
15103;DHT22;7652;53.584;9.998;2023-02-22T19:50:09;10.50;99.90
15103;DHT22;7652;53.584;9.998;2023-02-22T19:53:13;10.50;99.90
15103;DHT22;7652;53.584;9.998;2023-02-22T19:56:18;10.40;99.90
15103;DHT22;7652;53.584;9.998;2023-02-22T19:59:22;10.40;99.90
15103;DHT22;7652;53.584;9.998;2023-02-22T20:02:25;10.30;99.90
15103;DHT22;7652;53.584;9.998;2023-02-22T20:05:29;10.20;99.90
15103;DHT22;7652;53.584;9.998;2023-02-22T20:08:33;10.20;99.90
15103;DHT22;7652;53.584;9.998;2023-02-22T20:11:37;10.20;99.90
15103;DHT22;7652;53.584;9.998;2023-02-22T20:14:41;10.20;99.90